Time;durP1;ratioP1;P1;durP2;ratioP2;P2;SDS_P1;SDS_P2;PMS_P1;PMS_P2;Temp;Humidity;BMP_temperature;BMP_pressure;BME280_temperature;BME280_humidity;BME280_pressure;Samples;Min_cycle;Max_cycle;Signal;HPM_P1;HPM_P2
2023/08/22 00:00:16;;;;;;;8.38;7.32;;;20.20;99.90;;;;;;5053098;28;20025;-66
2023/08/22 00:02:43;;;;;;;10.15;8.07;;;20.10;99.90;;;;;;5054653;28;20104;-66
2023/08/22 00:05:09;;;;;;;11.27;7.97;;;20.10;99.90;;;;;;5054209;28;20482;-66
2023/08/22 00:07:34;;;;;;;8.75;7.57;;;20.00;99.90;;;;;;5054004;28;20027;-66
2023/08/22 00:10:00;;;;;;;10.93;7.90;;;20.00;99.90;;;;;;5054544;28;20112;-65
2023/08/22 00:12:26;;;;;;;11.85;8.23;;;20.00;99.90;;;;;;5054022;28;20029;-66
2023/08/22 00:14:52;;;;;;;9.25;8.27;;;20.00;99.90;;;;;;5054278;28;20029;-65
2023/08/22 00:17:18;;;;;;;9.13;7.43;;;20.00;99.90;;;;;;5054108;28;20036;-66
2023/08/22 00:19:45;;;;;;;12.13;7.68;;;20.00;99.90;;;;;;5054170;28;20021;-66
2023/08/22 00:22:11;;;;;;;11.13;8.18;;;19.90;99.90;;;;;;5054039;28;20021;-66
2023/08/22 00:24:38;;;;;;;9.13;8.23;;;19.90;99.90;;;;;;5052814;28;20068;-66
2023/08/22 00:27:03;;;;;;;11.52;8.32;;;19.80;99.90;;;;;;5054341;28;20454;-66
2023/08/22 00:29:29;;;;;;;10.90;8.40;;;19.80;99.90;;;;;;5054083;28;20029;-65
2023/08/22 00:31:56;;;;;;;12.45;8.30;;;19.80;99.90;;;;;;5053671;28;20108;-65
2023/08/22 00:34:22;;;;;;;9.95;8.05;;;19.70;99.90;;;;;;5054092;28;20039;-66
2023/08/22 00:36:47;;;;;;;9.68;8.10;;;19.70;99.90;;;;;;5052615;28;20391;-66
2023/08/22 00:39:13;;;;;;;11.55;8.35;;;19.80;99.90;;;;;;5053822;28;20034;-65
2023/08/22 00:41:39;;;;;;;9.10;8.20;;;19.70;99.90;;;;;;5053524;28;20029;-65
2023/08/22 00:44:04;;;;;;;11.82;8.30;;;19.70;99.90;;;;;;5053184;28;20029;-65
2023/08/22 00:46:30;;;;;;;9.18;8.20;;;19.70;99.90;;;;;;5053400;28;20029;-65
2023/08/22 00:48:56;;;;;;;10.75;8.48;;;19.70;99.90;;;;;;5058387;28;20048;-65
2023/08/22 00:51:22;;;;;;;9.80;8.27;;;19.60;99.90;;;;;;5075892;28;20039;-65
2023/08/22 00:53:48;;;;;;;11.95;8.38;;;19.60;99.90;;;;;;5093794;28;20035;-65
2023/08/22 00:56:15;;;;;;;10.50;8.38;;;19.60;99.90;;;;;;5093574;28;20020;-65
2023/08/22 00:58:41;;;;;;;11.80;8.57;;;19.60;99.90;;;;;;5075806;28;20078;-65
2023/08/22 01:01:07;;;;;;;13.45;8.98;;;19.50;99.90;;;;;;5076180;28;20032;-66
2023/08/22 01:03:34;;;;;;;10.95;7.93;;;19.50;99.90;;;;;;5093784;28;20082;-65
2023/08/22 01:06:16;;;;;;;12.30;8.65;;;19.40;99.90;;;;;;5093824;28;20016;-65
2023/08/22 01:08:48;;;;;;;9.40;8.40;;;19.40;99.90;;;;;;5076081;28;20111;-66
2023/08/22 01:11:37;;;;;;;12.90;8.75;;;19.40;99.90;;;;;;5075759;28;20024;-66
2023/08/22 01:14:07;;;;;;;13.27;8.50;;;19.40;99.90;;;;;;5093845;28;20050;-65
2023/08/22 01:16:33;;;;;;;10.35;9.20;;;19.30;99.90;;;;;;5093581;28;20511;-65
2023/08/22 01:19:01;;;;;;;9.75;8.75;;;19.30;99.90;;;;;;5093994;28;20111;-66
2023/08/22 01:21:27;;;;;;;10.15;8.75;;;19.30;99.90;;;;;;5093618;28;20024;-65
2023/08/22 01:23:53;;;;;;;9.50;8.07;;;19.30;99.90;;;;;;5093717;28;20038;-65
2023/08/22 01:26:18;;;;;;;9.82;8.55;;;19.20;99.90;;;;;;5093557;28;20024;-66
2023/08/22 01:28:52;;;;;;;10.77;8.73;;;19.20;99.90;;;;;;5093803;28;20411;-65
2023/08/22 01:31:31;;;;;;;11.75;9.10;;;19.20;99.90;;;;;;5093421;28;20024;-65
2023/08/22 01:34:19;;;;;;;10.70;8.68;;;19.20;99.90;;;;;;5093484;28;20483;-66
2023/08/22 01:36:46;;;;;;;14.07;8.95;;;19.20;99.90;;;;;;5093704;28;20028;-66
2023/08/22 01:39:14;;;;;;;13.52;9.38;;;19.10;99.90;;;;;;5075783;28;20021;-66
2023/08/22 01:41:40;;;;;;;11.53;9.03;;;19.10;99.90;;;;;;5075842;28;20070;-65
2023/08/22 01:44:06;;;;;;;11.90;9.65;;;19.10;99.90;;;;;;5075323;28;20298;-65
2023/08/22 01:46:31;;;;;;;11.82;8.70;;;19.10;99.90;;;;;;5093128;28;20020;-65
2023/08/22 01:48:57;;;;;;;10.95;9.05;;;19.00;99.90;;;;;;5075045;28;20032;-66
2023/08/22 01:51:22;;;;;;;11.57;9.40;;;19.00;99.90;;;;;;5093283;28;20051;-66
2023/08/22 01:53:48;;;;;;;11.85;8.88;;;19.00;99.90;;;;;;5094183;28;20039;-66
2023/08/22 01:56:14;;;;;;;13.43;9.82;;;19.00;99.90;;;;;;5097898;28;20062;-66
2023/08/22 01:58:39;;;;;;;11.55;8.68;;;19.00;99.90;;;;;;5099092;28;20078;-66
2023/08/22 02:01:11;;;;;;;13.10;9.35;;;19.00;99.90;;;;;;5080416;28;20398;-66
2023/08/22 02:03:39;;;;;;;12.32;10.43;;;19.00;99.90;;;;;;5097315;28;20021;-66
2023/08/22 02:06:05;;;;;;;11.13;9.35;;;18.90;99.90;;;;;;5078574;28;20030;-65
2023/08/22 02:08:30;;;;;;;12.05;9.27;;;18.90;99.90;;;;;;5097006;28;20020;-66
2023/08/22 02:10:56;;;;;;;12.65;9.55;;;18.90;99.90;;;;;;5096765;28;20457;-65
2023/08/22 02:13:22;;;;;;;11.73;9.30;;;18.90;99.90;;;;;;5078568;28;20040;-66
2023/08/22 02:15:47;;;;;;;10.75;9.63;;;18.80;99.90;;;;;;5078407;28;20149;-65
2023/08/22 02:18:13;;;;;;;15.32;11.02;;;18.80;99.90;;;;;;5078486;28;20085;-65
2023/08/22 02:20:39;;;;;;;10.50;9.45;;;18.80;99.90;;;;;;5078292;28;20530;-65
2023/08/22 02:23:04;;;;;;;10.93;9.80;;;18.80;99.90;;;;;;5096662;28;20042;-66
2023/08/22 02:25:32;;;;;;;12.13;9.38;;;18.80;99.90;;;;;;5078717;28;20024;-65
2023/08/22 02:27:58;;;;;;;11.20;9.38;;;18.80;99.90;;;;;;5096416;28;20103;-65
2023/08/22 02:30:24;;;;;;;10.55;9.45;;;18.70;99.90;;;;;;5096383;28;20119;-66
2023/08/22 02:32:50;;;;;;;13.13;9.95;;;18.80;99.90;;;;;;5096305;28;20050;-65
2023/08/22 02:35:15;;;;;;;14.70;9.73;;;18.70;99.90;;;;;;5078176;28;20059;-65
2023/08/22 02:37:41;;;;;;;12.05;9.98;;;18.70;99.90;;;;;;5078196;28;20099;-65
2023/08/22 02:40:09;;;;;;;11.18;9.95;;;18.70;99.90;;;;;;5078220;28;20028;-66
2023/08/22 02:42:35;;;;;;;10.77;9.68;;;18.70;99.90;;;;;;5096799;28;20059;-66
2023/08/22 02:45:01;;;;;;;11.63;9.40;;;18.70;99.90;;;;;;5096477;28;20032;-66
2023/08/22 02:47:27;;;;;;;16.20;9.45;;;18.70;99.90;;;;;;5078280;28;20024;-65
2023/08/22 02:49:53;;;;;;;10.85;9.77;;;18.70;99.90;;;;;;5064293;28;20052;-66
2023/08/22 02:52:19;;;;;;;13.07;9.63;;;18.60;99.90;;;;;;5054678;28;20024;-66
2023/08/22 02:54:44;;;;;;;14.23;11.18;;;18.60;99.90;;;;;;5055922;28;20052;-66
2023/08/22 02:57:10;;;;;;;12.13;9.65;;;18.60;99.90;;;;;;5055953;28;20032;-66
2023/08/22 02:59:36;;;;;;;12.85;10.23;;;18.60;99.90;;;;;;5055806;28;20134;-66
2023/08/22 03:02:03;;;;;;;16.25;10.23;;;18.60;99.90;;;;;;5055615;28;20059;-66
2023/08/22 03:04:29;;;;;;;11.38;10.13;;;18.50;99.90;;;;;;5056019;28;20065;-66
2023/08/22 03:06:55;;;;;;;12.20;10.45;;;18.50;99.90;;;;;;5059852;28;20021;-66
2023/08/22 03:09:21;;;;;;;13.02;10.20;;;18.50;99.90;;;;;;5060349;28;20032;-67
2023/08/22 03:11:47;;;;;;;14.70;10.10;;;18.50;99.90;;;;;;5059926;28;20021;-66
2023/08/22 03:14:13;;;;;;;14.63;10.93;;;18.50;99.90;;;;;;5056474;28;20043;-66
2023/08/22 03:16:39;;;;;;;12.05;9.98;;;18.50;99.90;;;;;;5055564;28;20114;-65
2023/08/22 03:19:05;;;;;;;11.30;10.18;;;18.50;99.90;;;;;;5055578;28;20021;-65
2023/08/22 03:21:30;;;;;;;11.32;10.23;;;18.40;99.90;;;;;;5055243;28;20074;-65
2023/08/22 03:23:56;;;;;;;11.45;10.25;;;18.50;99.90;;;;;;5055092;28;20363;-65
2023/08/22 03:26:22;;;;;;;13.48;10.63;;;18.50;99.90;;;;;;5055079;28;20021;-66
2023/08/22 03:28:48;;;;;;;15.63;10.07;;;18.40;99.90;;;;;;5055135;28;20021;-66
2023/08/22 03:31:14;;;;;;;13.00;10.50;;;18.40;99.90;;;;;;5054925;28;20021;-65
2023/08/22 03:33:39;;;;;;;12.73;10.85;;;18.40;99.90;;;;;;5054935;28;20029;-66
2023/08/22 03:36:05;;;;;;;14.90;10.50;;;18.40;99.90;;;;;;5054836;28;20032;-65
2023/08/22 03:38:31;;;;;;;11.57;10.40;;;18.40;99.90;;;;;;5053626;28;20122;-65
2023/08/22 03:40:57;;;;;;;14.75;11.43;;;18.40;99.90;;;;;;5055031;28;20036;-66
2023/08/22 03:43:23;;;;;;;12.55;11.25;;;18.40;99.90;;;;;;5055002;28;20070;-66
2023/08/22 03:45:49;;;;;;;12.40;11.13;;;18.40;99.90;;;;;;5054705;28;20036;-66
2023/08/22 03:48:15;;;;;;;13.73;11.65;;;18.40;99.90;;;;;;5054802;28;20021;-65
2023/08/22 03:50:42;;;;;;;12.13;10.70;;;18.40;99.90;;;;;;5088051;28;20059;-65
2023/08/22 03:53:12;;;;;;;15.13;11.70;;;18.40;99.90;;;;;;5076612;28;20389;-65
2023/08/22 03:55:38;;;;;;;12.45;11.10;;;18.40;99.90;;;;;;5094742;28;20117;-65
2023/08/22 03:58:04;;;;;;;11.90;10.57;;;18.30;99.90;;;;;;5094814;28;20420;-65
2023/08/22 04:00:30;;;;;;;19.15;12.10;;;18.30;99.90;;;;;;5094960;28;20024;-66
2023/08/22 04:02:57;;;;;;;15.05;11.85;;;18.30;99.90;;;;;;5094618;28;20074;-66
2023/08/22 04:05:23;;;;;;;16.85;11.85;;;18.30;99.90;;;;;;5094894;28;20028;-65
2023/08/22 04:07:50;;;;;;;12.85;11.38;;;18.40;99.90;;;;;;5094576;28;20028;-65
2023/08/22 04:10:15;;;;;;;13.63;12.23;;;18.40;99.90;;;;;;5094458;28;20024;-65
2023/08/22 04:12:42;;;;;;;14.57;10.82;;;;;;;;;;5094845;28;20032;-66
2023/08/22 04:15:09;;;;;;;14.90;11.65;;;18.40;99.90;;;;;;5082798;28;20035;-66
2023/08/22 04:17:35;;;;;;;14.10;11.85;;;18.40;99.90;;;;;;5100230;28;20024;-66
2023/08/22 04:20:01;;;;;;;13.18;11.00;;;18.40;99.90;;;;;;5099978;28;20016;-66
2023/08/22 04:22:27;;;;;;;14.70;11.25;;;18.40;99.90;;;;;;5098966;28;20031;-66
2023/08/22 04:24:53;;;;;;;14.30;10.95;;;18.50;99.90;;;;;;5094987;28;20035;-66
2023/08/22 04:27:18;;;;;;;11.30;10.15;;;18.50;99.90;;;;;;5094350;28;20032;-66
2023/08/22 04:29:44;;;;;;;12.90;10.40;;;18.50;99.90;;;;;;5094080;28;20385;-65
2023/08/22 04:32:09;;;;;;;16.23;11.27;;;18.60;99.90;;;;;;5076304;28;20077;-67
2023/08/22 04:34:35;;;;;;;11.07;9.98;;;18.60;99.90;;;;;;5094118;28;20460;-65
2023/08/22 04:37:01;;;;;;;12.65;11.35;;;18.60;99.90;;;;;;5094016;28;20028;-65
2023/08/22 04:39:26;;;;;;;12.75;10.98;;;18.80;99.90;;;;;;5093958;28;20028;-65
2023/08/22 04:41:52;;;;;;;13.35;10.68;;;18.80;99.90;;;;;;5093867;28;20027;-65
2023/08/22 04:44:18;;;;;;;11.75;10.23;;;18.80;99.90;;;;;;5093907;28;20086;-65
2023/08/22 04:46:43;;;;;;;18.40;11.23;;;18.90;99.90;;;;;;5075966;28;20437;-58
2023/08/22 04:49:09;;;;;;;12.82;11.20;;;19.00;99.90;;;;;;5093606;28;20059;-58
2023/08/22 04:51:35;;;;;;;13.05;10.05;;;19.00;99.90;;;;;;5093627;28;20484;-58
2023/08/22 04:54:00;;;;;;;12.75;10.68;;;19.10;99.90;;;;;;5093697;28;20059;-58
2023/08/22 04:56:26;;;;;;;15.32;9.43;;;19.10;99.90;;;;;;5093982;28;20369;-58
2023/08/22 04:58:52;;;;;;;13.85;10.35;;;19.20;99.90;;;;;;5093730;28;20032;-59
2023/08/22 05:01:18;;;;;;;13.05;10.13;;;19.30;99.90;;;;;;5075670;28;20458;-58
2023/08/22 05:03:45;;;;;;;13.95;10.13;;;19.30;99.90;;;;;;5093975;28;20054;-58
2023/08/22 05:06:11;;;;;;;13.90;10.50;;;19.40;99.90;;;;;;5093770;28;20020;-58
2023/08/22 05:08:36;;;;;;;11.35;9.85;;;19.50;99.90;;;;;;5093661;28;20032;-58
2023/08/22 05:11:02;;;;;;;13.25;10.07;;;19.50;99.90;;;;;;5093561;28;20051;-58
2023/08/22 05:13:28;;;;;;;15.88;9.70;;;19.60;99.90;;;;;;5093618;28;20024;-58
2023/08/22 05:15:53;;;;;;;13.48;9.80;;;19.70;99.90;;;;;;5093560;28;20465;-58
2023/08/22 05:18:19;;;;;;;12.20;9.90;;;19.80;99.90;;;;;;5093485;28;20024;-57
2023/08/22 05:20:44;;;;;;;11.73;9.50;;;19.90;99.90;;;;;;5093553;28;20038;-58
2023/08/22 05:23:10;;;;;;;13.40;9.60;;;19.90;99.90;;;;;;5093460;28;20081;-58
2023/08/22 05:25:35;;;;;;;16.95;10.40;;;20.10;99.90;;;;;;5075404;28;20032;-58
2023/08/22 05:28:01;;;;;;;18.00;9.98;;;20.20;99.90;;;;;;5093761;28;20028;-58
2023/08/22 05:30:27;;;;;;;11.10;9.35;;;20.30;99.90;;;;;;5096950;28;20024;-58
2023/08/22 05:32:53;;;;;;;13.20;9.23;;;20.30;99.90;;;;;;5097896;28;20107;-58
2023/08/22 05:35:18;;;;;;;13.18;9.48;;;20.50;99.90;;;;;;5097074;28;20031;-62
2023/08/22 05:37:44;;;;;;;13.60;9.65;;;20.60;99.90;;;;;;5097370;28;20024;-58
2023/08/22 05:40:11;;;;;;;11.10;9.75;;;20.60;99.90;;;;;;5096980;28;20461;-58
2023/08/22 05:42:36;;;;;;;14.38;8.27;;;20.80;99.90;;;;;;5097488;28;20032;-58
2023/08/22 05:45:02;;;;;;;14.52;9.10;;;21.00;99.90;;;;;;5097414;28;20461;-58
2023/08/22 05:47:28;;;;;;;12.75;8.63;;;21.10;99.90;;;;;;5096792;28;20450;-58
2023/08/22 05:49:54;;;;;;;17.70;9.57;;;21.30;99.90;;;;;;5078471;28;20139;-58
2023/08/22 05:52:20;;;;;;;11.43;8.80;;;21.50;99.90;;;;;;5097044;28;20104;-58
2023/08/22 05:54:45;;;;;;;11.02;8.50;;;21.70;99.90;;;;;;5078712;28;20047;-58
2023/08/22 05:57:11;;;;;;;13.48;8.60;;;21.80;99.90;;;;;;5097204;28;20024;-58
2023/08/22 05:59:37;;;;;;;9.52;8.50;;;22.00;99.90;;;;;;5097309;28;20024;-58
2023/08/22 06:02:02;;;;;;;12.27;8.48;;;22.20;99.90;;;;;;5079039;28;20024;-58
2023/08/22 06:04:28;;;;;;;10.10;8.88;;;22.40;99.90;;;;;;5096482;28;20492;-58
2023/08/22 06:06:54;;;;;;;10.57;8.65;;;22.60;99.90;;;;;;5078575;28;20390;-69
2023/08/22 06:09:20;;;;;;;9.90;8.30;;;23.00;99.90;;;;;;5096577;28;20020;-67
2023/08/22 06:11:46;;;;;;;12.65;8.10;;;23.40;99.90;;;;;;5078606;28;20020;-67
2023/08/22 06:14:12;;;;;;;10.50;8.60;;;23.70;99.90;;;;;;5096664;28;20043;-65
2023/08/22 06:16:37;;;;;;;12.27;8.82;;;24.20;99.90;;;;;;5096984;28;20358;-64
2023/08/22 06:19:03;;;;;;;11.80;8.40;;;24.60;99.90;;;;;;5096988;28;20111;-66
2023/08/22 06:21:28;;;;;;;9.77;7.88;;;24.90;99.90;;;;;;5078641;28;20393;-72
2023/08/22 06:23:54;;;;;;;12.82;9.10;;;25.30;99.90;;;;;;5078364;28;20504;-73
2023/08/22 06:26:20;;;;;;;13.80;8.30;;;25.70;99.90;;;;;;5096156;28;20107;-72
2023/08/22 06:28:46;;;;;;;10.60;9.10;;;26.10;99.90;;;;;;5078179;28;20028;-73
2023/08/22 06:31:12;;;;;;;9.30;8.32;;;26.30;99.90;;;;;;5078358;28;20020;-73
2023/08/22 06:33:37;;;;;;;11.38;8.13;;;26.60;99.90;;;;;;5078465;28;20556;-67
2023/08/22 06:36:03;;;;;;;9.80;8.90;;;26.80;99.90;;;;;;5078064;28;20488;-73
2023/08/22 06:38:29;;;;;;;14.00;8.05;;;27.10;99.90;;;;;;5096403;28;20070;-73
2023/08/22 06:40:55;;;;;;;10.38;8.50;;;27.50;99.90;;;;;;5077126;28;20100;-73
2023/08/22 06:43:22;;;;;;;8.65;7.70;;;27.80;99.90;;;;;;5096627;28;20024;-73
2023/08/22 06:45:48;;;;;;;11.23;7.78;;;28.10;99.90;;;;;;5098846;28;20024;-75
2023/08/22 06:48:13;;;;;;;10.43;7.43;;;28.50;99.90;;;;;;5101506;28;20088;-74
2023/08/22 06:50:39;;;;;;;9.95;7.72;;;28.80;99.90;;;;;;5102270;28;20044;-73
2023/08/22 06:53:04;;;;;;;8.65;7.85;;;29.20;99.90;;;;;;5081874;28;20036;-72
2023/08/22 06:55:30;;;;;;;7.95;7.25;;;29.30;99.90;;;;;;5079345;28;20064;-57
2023/08/22 06:57:56;;;;;;;13.50;7.40;;;29.50;99.90;;;;;;5077641;28;20119;-57
2023/08/22 07:00:22;;;;;;;8.35;7.55;;;29.50;99.90;;;;;;5095822;28;20364;-57
2023/08/22 07:02:48;;;;;;;10.88;7.90;;;29.70;99.90;;;;;;5077756;28;20496;-57
2023/08/22 07:05:15;;;;;;;15.10;7.50;;;29.90;99.90;;;;;;5095634;28;20101;-57
2023/08/22 07:07:41;;;;;;;10.55;7.18;;;30.10;99.10;;;;;;5077539;28;20028;-57
2023/08/22 07:10:08;;;;;;;10.98;7.38;;;30.30;99.10;;;;;;5095594;28;20032;-57
2023/08/22 07:12:35;;;;;;;10.70;8.02;;;30.50;98.10;;;;;;5095582;28;20042;-57
2023/08/22 07:15:01;;;;;;;9.80;7.35;;;30.50;97.90;;;;;;5095463;28;20071;-64
2023/08/22 07:17:27;;;;;;;8.00;7.25;;;30.50;97.80;;;;;;5095503;28;20051;-64
2023/08/22 07:19:52;;;;;;;8.77;7.15;;;30.80;97.70;;;;;;5095135;28;20107;-64
2023/08/22 07:22:18;;;;;;;9.93;7.78;;;31.00;96.80;;;;;;5095674;28;20028;-64
2023/08/22 07:24:44;;;;;;;8.02;7.22;;;31.00;96.40;;;;;;5077125;28;20556;-64
2023/08/22 07:27:12;;;;;;;10.55;8.38;;;30.90;96.50;;;;;;5077192;28;20157;-65
2023/08/22 07:29:39;;;;;;;8.48;7.25;;;30.90;96.30;;;;;;5095239;28;20028;-64
2023/08/22 07:32:05;;;;;;;8.18;7.38;;;31.20;96.30;;;;;;5095147;28;20020;-64
2023/08/22 07:34:32;;;;;;;8.40;7.60;;;31.80;96.00;;;;;;5076699;28;20362;-64
2023/08/22 07:36:57;;;;;;;8.13;7.28;;;32.40;94.30;;;;;;5095034;28;20028;-65
2023/08/22 07:39:23;;;;;;;8.70;7.90;;;32.60;93.40;;;;;;5076810;28;20366;-65
2023/08/22 07:41:49;;;;;;;8.90;7.70;;;32.70;93.20;;;;;;5076889;28;20389;-65
2023/08/22 07:44:14;;;;;;;8.45;7.63;;;33.00;92.20;;;;;;5076871;28;20035;-64
2023/08/22 07:46:40;;;;;;;8.32;6.95;;;33.30;91.80;;;;;;5095245;28;20033;-65
2023/08/22 07:49:07;;;;;;;8.43;7.30;;;33.70;90.80;;;;;;5076499;28;20052;-65
2023/08/22 07:51:34;;;;;;;7.53;6.65;;;33.90;89.30;;;;;;5094611;28;20055;-66
2023/08/22 07:54:01;;;;;;;7.65;6.80;;;33.90;88.50;;;;;;5094994;28;20024;-65
2023/08/22 07:56:27;;;;;;;8.75;6.70;;;34.20;87.60;;;;;;5094724;28;20042;-65
2023/08/22 07:58:52;;;;;;;7.65;6.85;;;34.40;86.00;;;;;;5095033;28;20382;-65
2023/08/22 08:01:18;;;;;;;7.65;6.88;;;34.60;85.30;;;;;;5094422;28;20074;-65
2023/08/22 08:03:43;;;;;;;7.38;6.68;;;34.80;83.20;;;;;;5094695;28;20024;-65
2023/08/22 08:06:09;;;;;;;7.70;6.65;;;34.90;82.90;;;;;;5094558;28;20161;-65
2023/08/22 08:08:35;;;;;;;7.20;6.53;;;35.10;81.40;;;;;;5094389;28;20492;-66
2023/08/22 08:11:00;;;;;;;7.63;6.22;;;35.50;79.50;;;;;;5076294;28;20020;-65
2023/08/22 08:13:26;;;;;;;7.32;6.63;;;35.80;78.40;;;;;;5094898;28;20028;-65
2023/08/22 08:15:52;;;;;;;8.02;6.63;;;35.90;76.50;;;;;;5094231;28;20042;-66
2023/08/22 08:18:17;;;;;;;7.10;6.50;;;35.90;76.30;;;;;;5094973;28;20030;-66
2023/08/22 08:20:43;;;;;;;11.52;6.20;;;36.20;75.40;;;;;;5094406;28;20020;-66
2023/08/22 08:23:10;;;;;;;6.40;5.80;;;36.50;73.20;;;;;;5076553;28;20090;-66
2023/08/22 08:25:36;;;;;;;7.82;6.35;;;36.10;72.40;;;;;;5093883;28;20526;-66
2023/08/22 08:28:04;;;;;;;8.60;5.70;;;35.90;72.10;;;;;;5076067;28;20051;-67
2023/08/22 08:30:30;;;;;;;7.72;6.03;;;36.10;72.60;;;;;;5094292;28;20077;-67
2023/08/22 08:32:56;;;;;;;8.85;5.80;;;36.00;72.00;;;;;;5094344;28;20020;-67
2023/08/22 08:35:22;;;;;;;10.88;5.85;;;36.30;70.50;;;;;;5094022;28;20043;-67
2023/08/22 08:37:48;;;;;;;6.82;6.20;;;36.80;69.50;;;;;;5093792;28;20099;-67
2023/08/22 08:40:14;;;;;;;6.45;5.85;;;37.20;68.80;;;;;;5094054;28;20361;-67
2023/08/22 08:42:41;;;;;;;7.90;6.30;;;37.40;67.30;;;;;;5094486;28;20016;-67
2023/08/22 08:45:08;;;;;;;6.80;6.22;;;37.50;66.20;;;;;;5075806;28;20477;-67
2023/08/22 08:47:34;;;;;;;8.93;5.60;;;37.90;65.40;;;;;;5093978;28;20035;-67
2023/08/22 08:50:05;;;;;;;6.55;5.60;;;38.20;64.60;;;;;;5094344;28;20388;-68
2023/08/22 08:52:32;;;;;;;9.27;5.88;;;38.00;64.00;;;;;;5077781;28;20024;-66
2023/08/22 08:54:59;;;;;;;6.20;5.70;;;37.90;63.50;;;;;;5076291;28;20038;-68
2023/08/22 08:57:26;;;;;;;6.35;5.65;;;37.80;62.80;;;;;;5076718;28;20023;-66
2023/08/22 08:59:52;;;;;;;6.13;5.50;;;38.00;63.20;;;;;;5076502;28;20028;-66
2023/08/22 09:02:19;;;;;;;9.40;5.90;;;38.20;62.50;;;;;;5076561;28;20056;-67
2023/08/22 09:04:44;;;;;;;6.47;5.82;;;38.40;61.60;;;;;;5097552;28;20050;-66
2023/08/22 09:07:10;;;;;;;6.03;5.45;;;38.60;59.70;;;;;;5098735;28;20028;-67
2023/08/22 09:09:36;;;;;;;7.32;5.35;;;38.40;59.30;;;;;;5079924;28;20024;-67
2023/08/22 09:12:15;;;;;;;5.78;5.28;;;38.30;59.40;;;;;;5097719;28;20035;-67
2023/08/22 09:14:48;;;;;;;11.10;5.30;;;38.80;58.30;;;;;;5098336;28;20032;-67
2023/08/22 09:17:17;;;;;;;5.95;5.25;;;39.00;57.80;;;;;;5098486;28;20483;-66
2023/08/22 09:19:44;;;;;;;5.50;5.00;;;39.10;57.00;;;;;;5079724;28;20035;-68
2023/08/22 09:22:14;;;;;;;7.40;4.82;;;39.40;56.00;;;;;;5097850;28;20500;-67
2023/08/22 09:24:50;;;;;;;6.05;4.95;;;39.70;55.00;;;;;;5097751;28;20028;-68
2023/08/22 09:27:16;;;;;;;7.95;4.80;;;39.80;53.50;;;;;;5079712;28;20030;-67
2023/08/22 09:29:42;;;;;;;8.15;4.78;;;39.80;52.30;;;;;;5097416;28;20024;-67
2023/08/22 09:32:08;;;;;;;5.15;4.75;;;40.20;52.00;;;;;;5097968;28;20024;-67
2023/08/22 09:34:35;;;;;;;5.93;4.78;;;39.90;52.30;;;;;;5097393;28;20039;-68
2023/08/22 09:37:01;;;;;;;5.70;5.20;;;40.20;51.70;;;;;;5097258;28;20370;-68
2023/08/22 09:39:30;;;;;;;9.90;5.37;;;40.60;51.00;;;;;;5079300;28;20032;-68
2023/08/22 09:42:00;;;;;;;6.55;4.65;;;40.70;50.60;;;;;;5097346;28;20116;-67
2023/08/22 09:44:27;;;;;;;7.65;5.03;;;40.90;51.20;;;;;;5097436;28;20093;-68
2023/08/22 09:46:55;;;;;;;5.72;5.18;;;40.80;51.50;;;;;;5097543;28;20059;-67
2023/08/22 09:49:22;;;;;;;9.27;4.80;;;39.70;52.00;;;;;;5097058;28;20072;-67
2023/08/22 09:51:49;;;;;;;6.23;4.60;;;39.80;51.50;;;;;;5078765;28;20024;-67
2023/08/22 09:54:15;;;;;;;8.18;4.88;;;40.30;51.10;;;;;;5097272;28;20024;-68
2023/08/22 09:56:42;;;;;;;9.32;4.88;;;40.80;51.20;;;;;;5078860;28;20085;-67
2023/08/22 09:59:08;;;;;;;7.60;4.78;;;41.20;51.00;;;;;;5096773;28;20039;-68
2023/08/22 10:01:40;;;;;;;7.20;4.95;;;41.20;49.60;;;;;;5096696;28;20016;-68
2023/08/22 10:04:06;;;;;;;8.20;5.20;;;41.40;49.30;;;;;;5097029;28;20020;-68
2023/08/22 10:06:34;;;;;;;9.02;5.47;;;41.40;49.80;;;;;;5097073;28;20028;-68
2023/08/22 10:09:13;;;;;;;6.20;4.53;;;41.30;48.70;;;;;;5096800;28;20376;-67
2023/08/22 10:11:43;;;;;;;7.15;4.75;;;41.50;48.30;;;;;;5079169;28;20381;-68
2023/08/22 10:14:17;;;;;;;5.35;4.60;;;41.70;48.00;;;;;;5096978;28;20142;-66
2023/08/22 10:16:45;;;;;;;6.22;4.50;;;40.90;48.30;;;;;;5096930;28;20365;-67
2023/08/22 10:19:12;;;;;;;4.90;4.50;;;41.00;48.40;;;;;;5096890;28;20388;-67
2023/08/22 10:21:45;;;;;;;6.60;4.97;;;40.90;48.70;;;;;;5096925;28;20035;-68
2023/08/22 10:24:30;;;;;;;5.72;4.55;;;41.60;48.10;;;;;;5096649;28;20025;-68
2023/08/22 10:27:12;;;;;;;5.32;4.43;;;42.10;46.80;;;;;;5096879;28;20038;-68
2023/08/22 10:29:46;;;;;;;5.32;4.93;;;42.40;46.70;;;;;;5078332;28;20158;-68
2023/08/22 10:32:12;;;;;;;6.00;5.40;;;42.60;47.00;;;;;;5097059;28;20101;-68
2023/08/22 10:34:37;;;;;;;5.70;5.10;;;42.60;46.60;;;;;;5096499;28;20075;-68
2023/08/22 10:37:04;;;;;;;6.10;5.43;;;42.80;46.50;;;;;;5096419;28;20020;-68
2023/08/22 10:39:39;;;;;;;6.45;4.90;;;42.70;46.30;;;;;;5096197;28;20032;-67
2023/08/22 10:42:15;;;;;;;5.50;5.00;;;42.40;46.90;;;;;;5096531;28;20040;-80
2023/08/22 10:44:42;;;;;;;9.68;6.45;;;42.80;46.20;;;;;;5078774;28;20028;-81
2023/08/22 10:47:15;;;;;;;8.48;5.63;;;42.60;46.50;;;;;;5096333;28;20020;-81
2023/08/22 10:49:42;;;;;;;6.53;5.25;;;43.10;45.80;;;;;;5066212;28;20053;-81
2023/08/22 10:52:11;;;;;;;6.82;5.70;;;43.30;45.80;;;;;;5059580;28;20025;-82
2023/08/22 10:55:00;;;;;;;7.20;5.63;;;43.80;44.90;;;;;;5057072;28;20033;-81
2023/08/22 10:57:29;;;;;;;5.82;5.32;;;44.00;45.10;;;;;;5058779;28;20029;-80
2023/08/22 10:59:58;;;;;;;9.55;5.20;;;43.60;45.00;;;;;;5062076;28;20120;-81
2023/08/22 11:02:34;;;;;;;7.32;6.07;;;43.80;45.10;;;;;;5060562;28;20021;-80
2023/08/22 11:05:08;;;;;;;6.22;5.72;;;43.70;43.80;;;;;;5059031;28;20060;-80
2023/08/22 11:07:34;;;;;;;14.98;6.07;;;42.00;44.80;;;;;;5055568;28;20036;-82
2023/08/22 11:10:00;;;;;;;5.82;5.30;;;41.00;45.80;;;;;;5056870;28;20033;-81
2023/08/22 11:12:27;;;;;;;7.15;6.45;;;41.70;47.00;;;;;;5054986;28;20025;-81
2023/08/22 11:14:57;;;;;;;9.20;6.13;;;42.40;45.10;;;;;;5056167;28;20048;-81
2023/08/22 11:17:24;;;;;;;6.75;6.00;;;42.90;44.90;;;;;;5054628;28;20428;-81
2023/08/22 11:19:52;;;;;;;9.00;5.68;;;42.90;44.40;;;;;;5054419;28;20386;-81
2023/08/22 11:22:18;;;;;;;11.60;6.22;;;43.10;44.50;;;;;;5054568;28;20468;-81
2023/08/22 11:24:50;;;;;;;8.90;5.95;;;42.90;43.60;;;;;;5054150;28;20029;-80
2023/08/22 11:27:16;;;;;;;8.77;5.80;;;43.40;43.50;;;;;;5053906;28;20356;-82
2023/08/22 11:29:45;;;;;;;8.73;5.63;;;43.00;43.30;;;;;;5055007;28;20108;-80
2023/08/22 11:32:23;;;;;;;7.15;6.07;;;42.50;43.30;;;;;;5055236;28;20052;-82
2023/08/22 11:34:51;;;;;;;9.55;6.60;;;43.00;43.90;;;;;;5053117;28;20056;-81
2023/08/22 11:37:17;;;;;;;9.07;5.75;;;43.10;43.80;;;;;;5055179;28;20075;-81
2023/08/22 11:39:50;;;;;;;6.57;5.97;;;43.40;43.80;;;;;;5055308;28;20108;-81
2023/08/22 11:42:17;;;;;;;10.38;5.60;;;43.80;42.40;;;;;;5053526;28;20029;-80
2023/08/22 11:44:53;;;;;;;8.60;5.90;;;44.00;42.90;;;;;;5054871;28;20036;-82
2023/08/22 11:47:19;;;;;;;6.97;5.70;;;43.60;41.90;;;;;;5053728;28;20031;-82
2023/08/22 11:49:49;;;;;;;6.30;5.70;;;43.60;42.50;;;;;;5072719;28;20115;-80
2023/08/22 11:52:15;;;;;;;7.72;6.00;;;43.80;42.70;;;;;;5077299;28;20123;-81
2023/08/22 11:54:45;;;;;;;11.30;5.75;;;44.10;42.00;;;;;;5095166;28;20440;-82
2023/08/22 11:57:14;;;;;;;8.00;5.50;;;44.10;41.80;;;;;;5095155;28;20024;-83
2023/08/22 11:59:42;;;;;;;5.88;5.38;;;43.60;41.40;;;;;;5077405;28;20046;-83
2023/08/22 12:02:11;;;;;;;6.10;5.57;;;43.80;41.10;;;;;;5094300;28;20457;-84
2023/08/22 12:04:43;;;;;;;9.95;5.75;;;43.90;41.90;;;;;;5095537;28;20131;-83
2023/08/22 12:07:09;;;;;;;6.47;5.90;;;44.30;40.90;;;;;;5076905;28;20050;-83
2023/08/22 12:09:35;;;;;;;8.00;5.70;;;44.80;40.50;;;;;;5095352;28;20063;-83
2023/08/22 12:12:14;;;;;;;5.82;5.25;;;44.70;40.00;;;;;;5077614;28;20024;-82
2023/08/22 12:14:40;;;;;;;9.85;5.85;;;44.50;40.30;;;;;;5096193;28;20035;-80
2023/08/22 12:17:07;;;;;;;6.70;5.82;;;43.90;40.20;;;;;;5094665;28;20020;-79
2023/08/22 12:19:32;;;;;;;6.40;5.80;;;43.90;40.90;;;;;;5076661;28;20031;-80
2023/08/22 12:21:59;;;;;;;6.88;5.57;;;43.10;39.70;;;;;;5094333;28;20473;-80
2023/08/22 12:24:26;;;;;;;5.77;4.80;;;42.50;40.60;;;;;;5094688;28;20453;-82
2023/08/22 12:26:52;;;;;;;6.03;5.43;;;42.80;41.20;;;;;;5076271;28;20266;-79
2023/08/22 12:29:18;;;;;;;5.38;4.88;;;43.40;40.60;;;;;;5076148;28;20054;-80
2023/08/22 12:31:44;;;;;;;5.93;4.97;;;43.40;40.00;;;;;;5094417;28;20024;-79
2023/08/22 12:34:09;;;;;;;6.53;4.55;;;43.50;40.10;;;;;;5076188;28;20117;-80
2023/08/22 12:36:35;;;;;;;6.88;4.65;;;43.40;40.50;;;;;;5076105;28;20020;-81
2023/08/22 12:39:00;;;;;;;5.20;4.70;;;44.10;39.50;;;;;;5075308;28;20020;-81